createdAt,value
2022-09-06T00:00:42.176Z,101960.88
2022-09-06T00:03:09.210Z,101953.94
2022-09-06T00:05:36.415Z,101951.28
2022-09-06T00:08:04.152Z,101947.75
2022-09-06T00:10:32.711Z,101944.16
2022-09-06T00:13:05.209Z,101943.34
2022-09-06T00:15:31.974Z,101948.66
2022-09-06T00:18:00.679Z,101949.59
2022-09-06T00:20:29.744Z,101944.38
2022-09-06T00:23:01.010Z,101941.81
2022-09-06T00:25:28.796Z,101945.41
2022-09-06T00:28:02.971Z,101940.09
2022-09-06T00:30:31.083Z,101938.44
2022-09-06T00:32:57.780Z,101936.00
2022-09-06T00:35:26.011Z,101944.91
2022-09-06T00:37:57.594Z,101939.59
2022-09-06T00:40:23.982Z,101929.84
2022-09-06T00:42:50.488Z,101936.88
2022-09-06T00:45:17.051Z,101928.03
2022-09-06T00:47:43.746Z,101924.53
2022-09-06T00:50:13.645Z,101937.88
2022-09-06T00:52:41.691Z,101933.44
2022-09-06T00:55:08.644Z,101937.03
2022-09-06T00:57:35.659Z,101935.22
2022-09-06T01:00:04.007Z,101934.38
2022-09-06T01:02:30.596Z,101938.84
2022-09-06T01:04:57.537Z,101927.34
2022-09-06T01:08:02.848Z,101925.69
2022-09-06T01:10:47.268Z,101918.56
2022-09-06T01:13:34.931Z,101916.09
2022-09-06T01:16:28.386Z,101922.47
2022-09-06T01:19:19.905Z,101928.66
2022-09-06T01:22:01.281Z,101915.44
2022-09-06T01:24:54.731Z,101917.22
2022-09-06T01:27:56.492Z,101916.38
2022-09-06T01:30:24.624Z,101905.84
2022-09-06T01:33:00.247Z,101915.75
2022-09-06T01:35:38.677Z,101915.81
2022-09-06T01:38:06.313Z,101920.22
2022-09-06T01:40:36.291Z,101914.94
2022-09-06T01:43:10.637Z,101919.50
2022-09-06T01:46:00.483Z,101915.13
2022-09-06T01:48:58.997Z,101926.53
2022-09-06T01:51:37.453Z,101915.81
2022-09-06T01:54:13.384Z,101916.13
2022-09-06T01:57:07.120Z,101917.94
2022-09-06T01:59:36.418Z,101917.94
2022-09-06T02:02:16.532Z,101920.72
2022-09-06T02:04:52.118Z,101913.63
2022-09-06T02:07:25.782Z,101922.44
2022-09-06T02:10:00.316Z,101915.50
2022-09-06T02:12:29.849Z,101907.69
2022-09-06T02:15:01.484Z,101902.47
2022-09-06T02:17:34.161Z,101900.66
2022-09-06T02:20:12.917Z,101905.22
2022-09-06T02:22:41.704Z,101901.69
2022-09-06T02:25:12.911Z,101896.47
2022-09-06T02:27:39.834Z,101898.25
2022-09-06T02:30:06.722Z,101899.97
2022-09-06T02:32:40.156Z,101894.84
2022-09-06T02:35:14.563Z,101901.03
2022-09-06T02:37:41.900Z,101908.16
2022-09-06T02:40:10.156Z,101910.03
2022-09-06T02:42:36.818Z,101906.44
2022-09-06T02:45:05.183Z,101905.56
2022-09-06T02:47:31.719Z,101898.47
2022-09-06T02:49:58.143Z,101896.66
2022-09-06T02:52:24.590Z,101891.31
2022-09-06T02:54:51.689Z,101883.34
2022-09-06T02:57:18.054Z,101886.22
2022-09-06T02:59:45.890Z,101884.50
2022-09-06T03:02:12.658Z,101883.66
2022-09-06T03:04:39.198Z,101876.53
2022-09-06T03:07:05.834Z,101875.69
2022-09-06T03:09:32.226Z,101879.47
2022-09-06T03:11:58.708Z,101874.34
2022-09-06T03:14:25.156Z,101884.94
2022-09-06T03:16:51.703Z,101872.63
2022-09-06T03:19:18.879Z,101871.69
2022-09-06T03:21:45.305Z,101869.81
2022-09-06T03:24:11.811Z,101872.47
2022-09-06T03:26:38.196Z,101872.47
2022-09-06T03:29:04.670Z,101862.69
2022-09-06T03:31:31.320Z,101855.66
2022-09-06T03:33:57.846Z,101859.25
2022-09-06T03:36:24.375Z,101854.09
2022-09-06T03:38:51.374Z,101860.28
2022-09-06T03:41:17.855Z,101857.69
2022-09-06T03:43:44.331Z,101863.06
2022-09-06T03:46:10.884Z,101873.69
2022-09-06T03:48:37.376Z,101868.63
2022-09-06T03:51:03.768Z,101873.91
2022-09-06T03:53:31.318Z,101866.00
2022-09-06T03:55:58.223Z,101868.97
2022-09-06T03:58:29.366Z,101876.09
2022-09-06T04:01:06.739Z,101870.78
2022-09-06T04:03:34.255Z,101875.06
2022-09-06T04:06:00.713Z,101878.66
2022-09-06T04:08:27.518Z,101871.63
2022-09-06T04:10:55.147Z,101863.72
2022-09-06T04:13:23.115Z,101865.47
2022-09-06T04:15:50.680Z,101863.72
2022-09-06T04:18:17.197Z,101863.78
2022-09-06T04:20:47.528Z,101862.94
2022-09-06T04:23:14.245Z,101865.50
2022-09-06T04:25:40.696Z,101852.41
2022-09-06T04:28:07.236Z,101865.66
2022-09-06T04:30:33.619Z,101866.59
2022-09-06T04:33:00.083Z,101872.97
2022-09-06T04:35:26.530Z,101876.63
2022-09-06T04:37:52.974Z,101872.28
2022-09-06T04:40:19.542Z,101859.00
2022-09-06T04:42:45.961Z,101861.66
2022-09-06T04:45:12.601Z,101852.84
2022-09-06T04:47:39.027Z,101852.84
2022-09-06T04:50:06.364Z,101857.22
2022-09-06T04:52:33.441Z,101858.06
2022-09-06T04:55:00.065Z,101849.34
2022-09-06T04:57:26.553Z,101842.22
2022-09-06T04:59:52.989Z,101845.81
2022-09-06T05:02:19.497Z,101846.84
2022-09-06T05:04:45.924Z,101843.28
2022-09-06T05:07:12.330Z,101840.63
2022-09-06T05:09:38.787Z,101841.44
2022-09-06T05:12:05.480Z,101843.16
2022-09-06T05:14:31.933Z,101842.31
2022-09-06T05:16:58.536Z,101850.41
2022-09-06T05:19:25.012Z,101857.38
2022-09-06T05:21:52.059Z,101864.31
2022-09-06T05:24:18.730Z,101858.22
2022-09-06T05:26:45.342Z,101860.81
2022-09-06T05:29:11.954Z,101867.75
2022-09-06T05:31:38.571Z,101863.22
2022-09-06T05:34:05.718Z,101869.34
2022-09-06T05:36:32.502Z,101870.13
2022-09-06T05:38:59.254Z,101866.53
2022-09-06T05:41:26.560Z,101862.94
2022-09-06T05:43:53.055Z,101866.38
2022-09-06T05:46:19.992Z,101870.69
2022-09-06T05:48:56.319Z,101864.44
2022-09-06T05:51:22.820Z,101862.66
2022-09-06T05:53:49.330Z,101867.03
2022-09-06T05:56:16.687Z,101866.00
2022-09-06T05:58:43.648Z,101856.25
2022-09-06T06:01:19.534Z,101858.91
2022-09-06T06:03:54.418Z,101849.09
2022-09-06T06:06:22.063Z,101858.63
2022-09-06T06:08:48.816Z,101851.38
2022-09-06T06:11:15.967Z,101857.47
2022-09-06T06:13:43.223Z,101861.84
2022-09-06T06:16:12.698Z,101860.03
2022-09-06T06:18:39.374Z,101856.44
2022-09-06T06:21:13.079Z,101867.94
2022-09-06T06:23:40.838Z,101860.97
2022-09-06T06:26:08.776Z,101855.59
2022-09-06T06:28:36.363Z,101843.03
2022-09-06T06:31:04.026Z,101851.00
2022-09-06T06:33:31.018Z,101858.91
2022-09-06T06:36:02.535Z,101850.84
2022-09-06T06:38:38.614Z,101846.41
2022-09-06T06:41:07.262Z,101842.03
2022-09-06T06:43:37.705Z,101854.28
2022-09-06T06:46:04.611Z,101853.41
2022-09-06T06:48:31.500Z,101841.00
2022-09-06T06:50:58.290Z,101838.34
2022-09-06T06:53:24.824Z,101817.97
2022-09-06T06:55:51.322Z,101829.31
2022-09-06T06:58:18.885Z,101830.25
2022-09-06T07:00:46.187Z,101837.19
2022-09-06T07:03:13.429Z,101834.53
2022-09-06T07:08:29.480Z,101836.69
2022-09-06T07:10:55.959Z,101832.97
2022-09-06T07:13:22.530Z,101827.56
2022-09-06T07:15:49.006Z,101819.50
2022-09-06T07:18:17.253Z,101821.06
2022-09-06T07:26:18.941Z,101830.22
2022-09-06T07:28:46.615Z,101831.75
2022-09-06T07:33:59.654Z,101830.75
2022-09-06T07:36:26.243Z,101836.00
2022-09-06T07:38:53.551Z,101841.13
2022-09-06T07:41:20.112Z,101835.91
2022-09-06T07:43:47.424Z,101841.22
2022-09-06T07:46:16.683Z,101842.63
2022-09-06T07:48:45.189Z,101853.63
2022-09-06T07:51:17.396Z,101848.31
2022-09-06T07:53:47.618Z,101837.53
2022-09-06T07:56:14.068Z,101837.38
2022-09-06T07:58:41.107Z,101843.28
2022-09-06T08:01:30.198Z,101841.56
2022-09-06T08:04:04.811Z,101836.63
2022-09-06T08:09:20.266Z,101844.00
2022-09-06T08:11:46.936Z,101843.78
2022-09-06T08:14:13.623Z,101845.97
2022-09-06T08:16:40.258Z,101839.50
2022-09-06T08:19:08.713Z,101854.59
2022-09-06T08:21:35.425Z,101846.53
2022-09-06T08:24:05.191Z,101856.75
2022-09-06T08:26:33.454Z,101854.63
2022-09-06T08:29:02.528Z,101850.78
2022-09-06T08:31:31.131Z,101850.50
2022-09-06T08:33:59.097Z,101852.16
2022-09-06T08:36:32.274Z,101852.91
2022-09-06T08:39:00.367Z,101849.97
2022-09-06T08:41:54.647Z,101857.81
2022-09-06T08:47:20.550Z,101858.75
2022-09-06T08:49:52.849Z,101861.25
2022-09-06T08:53:00.125Z,101856.38
2022-09-06T08:55:47.910Z,101854.38
2022-09-06T08:58:34.665Z,101849.16
2022-09-06T09:01:06.376Z,101841.94
2022-09-06T09:03:38.087Z,101844.88
2022-09-06T09:06:07.237Z,101844.03
2022-09-06T09:09:06.434Z,101840.56
2022-09-06T09:11:36.332Z,101835.34
2022-09-06T09:14:15.733Z,101830.41
2022-09-06T09:16:43.007Z,101817.09
2022-09-06T09:19:09.752Z,101820.56
2022-09-06T09:21:38.358Z,101821.41
2022-09-06T09:24:10.805Z,101820.56
2022-09-06T09:26:50.328Z,101810.16
2022-09-06T09:29:17.212Z,101820.03
2022-09-06T09:31:53.318Z,101813.16
2022-09-06T09:34:38.002Z,101816.00
2022-09-06T09:40:25.896Z,101808.78
2022-09-06T09:42:56.795Z,101806.97
2022-09-06T09:45:30.225Z,101807.84
2022-09-06T09:47:57.382Z,101817.53
2022-09-06T09:50:32.588Z,101808.13
2022-09-06T09:53:10.862Z,101800.28
2022-09-06T09:55:37.655Z,101801.84
2022-09-06T09:58:06.219Z,101804.59
2022-09-06T10:00:43.351Z,101798.75
2022-09-06T10:03:18.902Z,101795.06
2022-09-06T10:06:02.589Z,101800.28
2022-09-06T10:08:33.628Z,101793.16
2022-09-06T10:11:00.892Z,101782.69
2022-09-06T10:13:30.185Z,101783.56
2022-09-06T10:15:59.119Z,101784.31
2022-09-06T10:18:30.727Z,101775.31
2022-09-06T10:21:05.675Z,101772.66
2022-09-06T10:26:50.357Z,101768.72
2022-09-06T10:29:43.878Z,101765.75
2022-09-06T10:32:58.418Z,101763.81
2022-09-06T10:35:31.679Z,101752.09
2022-09-06T10:38:32.324Z,101752.19
2022-09-06T10:41:06.998Z,101748.59
2022-09-06T10:43:51.945Z,101743.16
2022-09-06T10:46:21.586Z,101745.69
2022-09-06T10:48:48.466Z,101749.13
2022-09-06T10:51:33.739Z,101752.81
2022-09-06T10:54:23.640Z,101759.16
2022-09-06T10:56:58.920Z,101758.19
2022-09-06T10:59:39.807Z,101746.88
2022-09-06T11:02:22.857Z,101751.06
2022-09-06T11:07:41.519Z,101749.59
2022-09-06T11:10:34.493Z,101745.22
2022-09-06T11:13:21.072Z,101747.03
2022-09-06T11:16:08.612Z,101755.78
2022-09-06T11:18:46.562Z,101762.56
2022-09-06T11:21:20.944Z,101756.03
2022-09-06T11:24:05.769Z,101753.06
2022-09-06T11:26:40.338Z,101754.72
2022-09-06T11:29:10.454Z,101751.22
2022-09-06T11:32:28.924Z,101753.56
2022-09-06T11:34:58.888Z,101742.47
2022-09-06T11:37:34.691Z,101752.16
2022-09-06T11:42:51.673Z,101750.66
2022-09-06T11:45:40.383Z,101745.25
2022-09-06T11:48:26.238Z,101744.09
2022-09-06T11:50:58.834Z,101746.69
2022-09-06T11:53:35.895Z,101733.44
2022-09-06T11:56:02.242Z,101736.97
2022-09-06T11:58:35.765Z,101732.50
2022-09-06T12:01:16.291Z,101734.13
2022-09-06T12:06:33.356Z,101730.97
2022-09-06T12:09:00.007Z,101731.66
2022-09-06T12:11:37.185Z,101740.41
2022-09-06T12:14:28.154Z,101734.00
2022-09-06T12:16:57.698Z,101731.97
2022-09-06T12:19:46.273Z,101728.66
2022-09-06T12:22:35.834Z,101727.84
2022-09-06T12:25:24.039Z,101720.31
2022-09-06T12:28:04.120Z,101712.53
2022-09-06T12:30:41.921Z,101708.03
2022-09-06T12:33:17.370Z,101700.81
2022-09-06T12:35:59.827Z,101694.72
2022-09-06T12:38:28.584Z,101693.66
2022-09-06T12:40:58.929Z,101690.16
2022-09-06T12:43:26.269Z,101685.66
2022-09-06T12:45:53.151Z,101690.16
2022-09-06T12:48:31.462Z,101688.53
2022-09-06T12:51:06.486Z,101691.78
2022-09-06T12:53:34.705Z,101684.75
2022-09-06T12:56:14.594Z,101684.16
2022-09-06T12:58:41.194Z,101673.50
2022-09-06T13:01:14.826Z,101668.38
2022-09-06T13:03:53.940Z,101666.25
2022-09-06T13:06:26.816Z,101663.50
2022-09-06T13:08:56.979Z,101664.09
2022-09-06T13:11:34.359Z,101657.31
2022-09-06T13:14:02.428Z,101656.56
2022-09-06T13:16:38.206Z,101653.31
2022-09-06T13:19:14.605Z,101653.31
2022-09-06T13:21:43.700Z,101654.28
2022-09-06T13:24:24.984Z,101651.72
2022-09-06T13:26:52.571Z,101653.41
2022-09-06T13:29:29.155Z,101659.06
2022-09-06T13:31:57.323Z,101661.88
2022-09-06T13:34:28.443Z,101660.19
2022-09-06T13:37:01.936Z,101662.09
2022-09-06T13:39:31.618Z,101670.94
2022-09-06T13:42:09.629Z,101676.34
2022-09-06T13:44:38.665Z,101676.34
2022-09-06T13:47:05.900Z,101676.47
2022-09-06T13:49:33.722Z,101676.25
2022-09-06T13:52:02.364Z,101669.88
2022-09-06T13:54:30.131Z,101672.47
2022-09-06T13:56:57.060Z,101667.16
2022-09-06T13:59:24.669Z,101666.25
2022-09-06T14:02:12.030Z,101659.41
2022-09-06T14:04:38.814Z,101658.47
2022-09-06T14:07:05.510Z,101653.34
2022-09-06T14:09:32.555Z,101653.44
2022-09-06T14:11:59.300Z,101651.91
2022-09-06T14:14:25.864Z,101650.28
2022-09-06T14:16:53.926Z,101649.59
2022-09-06T14:19:20.319Z,101642.78
2022-09-06T14:21:46.712Z,101643.72
2022-09-06T14:24:13.244Z,101637.59
2022-09-06T14:26:39.687Z,101634.19
2022-09-06T14:29:06.319Z,101639.50
2022-09-06T14:31:32.914Z,101636.00
2022-09-06T14:34:01.164Z,101631.53
2022-09-06T14:36:29.725Z,101630.50
2022-09-06T14:38:58.538Z,101626.88
2022-09-06T14:41:25.964Z,101620.50
2022-09-06T14:43:55.073Z,101616.78
2022-09-06T14:46:22.987Z,101619.28
2022-09-06T14:48:55.712Z,101610.13
2022-09-06T14:51:23.208Z,101617.00
2022-09-06T14:53:52.167Z,101613.38
2022-09-06T14:56:19.297Z,101613.28
2022-09-06T14:58:46.556Z,101609.56
2022-09-06T15:01:19.203Z,101617.44
2022-09-06T15:03:52.126Z,101613.84
2022-09-06T15:06:21.444Z,101614.72
2022-09-06T15:08:48.933Z,101605.75
2022-09-06T15:11:29.093Z,101599.47
2022-09-06T15:13:56.157Z,101596.44
2022-09-06T15:16:22.736Z,101600.41
2022-09-06T15:18:49.124Z,101601.94
2022-09-06T15:21:17.579Z,101603.53
2022-09-06T15:23:44.148Z,101603.38
2022-09-06T15:26:13.509Z,101608.63
2022-09-06T15:28:41.759Z,101603.19
2022-09-06T15:31:08.601Z,101598.59
2022-09-06T15:33:37.272Z,101591.34
2022-09-06T15:36:08.373Z,101591.28
2022-09-06T15:38:55.128Z,101586.91
2022-09-06T15:41:26.992Z,101581.38
2022-09-06T15:43:56.822Z,101587.44
2022-09-06T15:46:35.131Z,101583.81
2022-09-06T15:49:04.124Z,101587.28
2022-09-06T15:51:30.871Z,101577.47
2022-09-06T15:53:58.839Z,101580.97
2022-09-06T15:56:26.180Z,101583.66
2022-09-06T15:58:52.815Z,101580.13
2022-09-06T16:01:21.591Z,101575.66
2022-09-06T16:03:58.483Z,101580.13
2022-09-06T16:06:27.614Z,101578.84
2022-09-06T16:09:00.219Z,101574.94
2022-09-06T16:11:28.662Z,101569.28
2022-09-06T16:13:55.150Z,101569.22
2022-09-06T16:16:22.669Z,101559.56
2022-09-06T16:18:49.207Z,101568.44
2022-09-06T16:21:18.476Z,101565.97
2022-09-06T16:23:53.836Z,101559.56
2022-09-06T16:26:22.728Z,101552.44
2022-09-06T16:28:51.468Z,101555.88
2022-09-06T16:31:19.429Z,101554.06
2022-09-06T16:33:47.484Z,101540.84
2022-09-06T16:36:14.964Z,101539.09
2022-09-06T16:38:41.871Z,101542.72
2022-09-06T16:41:25.182Z,101541.22
2022-09-06T16:43:52.591Z,101535.22
2022-09-06T16:46:24.885Z,101533.84
2022-09-06T16:48:53.116Z,101530.63
2022-09-06T16:51:21.771Z,101536.25
2022-09-06T16:53:49.330Z,101535.59
2022-09-06T16:56:18.754Z,101531.44
2022-09-06T16:58:53.359Z,101537.75
2022-09-06T17:01:20.911Z,101531.69
2022-09-06T17:03:47.660Z,101525.72
2022-09-06T17:06:14.513Z,101526.94
2022-09-06T17:08:40.902Z,101527.22
2022-09-06T17:11:14.760Z,101527.44
2022-09-06T17:13:42.720Z,101520.78
2022-09-06T17:16:27.947Z,101525.38
2022-09-06T17:18:54.766Z,101526.50
2022-09-06T17:21:23.543Z,101525.00
2022-09-06T17:23:51.033Z,101530.44
2022-09-06T17:26:20.565Z,101527.75
2022-09-06T17:28:50.420Z,101528.72
2022-09-06T17:31:22.191Z,101522.72
2022-09-06T17:33:50.539Z,101521.13
2022-09-06T17:36:21.029Z,101514.25
2022-09-06T17:38:52.868Z,101519.78
2022-09-06T17:41:28.173Z,101513.81
2022-09-06T17:43:55.449Z,101520.25
2022-09-06T17:46:28.417Z,101519.69
2022-09-06T17:48:55.381Z,101523.31
2022-09-06T17:51:21.783Z,101523.69
2022-09-06T17:53:48.336Z,101522.13
2022-09-06T17:56:16.691Z,101524.91
2022-09-06T17:58:43.858Z,101525.94
2022-09-06T18:01:13.123Z,101525.25
2022-09-06T18:03:41.317Z,101522.06
2022-09-06T18:06:11.412Z,101519.84
2022-09-06T18:08:40.199Z,101524.38
2022-09-06T18:11:16.633Z,101529.25
2022-09-06T18:13:44.373Z,101524.09
2022-09-06T18:16:12.631Z,101508.44
2022-09-06T18:18:39.193Z,101512.91
2022-09-06T18:21:08.687Z,101518.38
2022-09-06T18:23:35.943Z,101524.75
2022-09-06T18:26:06.194Z,101518.69
2022-09-06T18:28:35.178Z,101530.34
2022-09-06T18:31:08.253Z,101532.25
2022-09-06T18:33:35.679Z,101532.34
2022-09-06T18:36:03.257Z,101526.25
2022-09-06T18:38:30.052Z,101532.59
2022-09-06T18:40:59.412Z,101530.97
2022-09-06T18:43:37.641Z,101533.75
2022-09-06T18:46:09.495Z,101533.84
2022-09-06T18:48:37.488Z,101534.00
2022-09-06T18:51:12.893Z,101541.31
2022-09-06T18:53:44.779Z,101537.78
2022-09-06T18:56:13.508Z,101534.44
2022-09-06T18:58:40.805Z,101536.44
2022-09-06T19:01:10.012Z,101541.00
2022-09-06T19:03:37.972Z,101534.00
2022-09-06T19:06:12.893Z,101549.19
2022-09-06T19:08:40.362Z,101543.88
2022-09-06T19:11:09.873Z,101550.13
2022-09-06T19:13:38.940Z,101549.38
2022-09-06T19:16:06.649Z,101541.75
2022-09-06T19:18:34.495Z,101546.22
2022-09-06T19:21:06.553Z,101550.88
2022-09-06T19:23:35.246Z,101552.56
2022-09-06T19:26:07.401Z,101554.28
2022-09-06T19:28:34.681Z,101546.41
2022-09-06T19:31:13.349Z,101558.91
2022-09-06T19:33:40.790Z,101555.38
2022-09-06T19:36:11.943Z,101558.22
2022-09-06T19:38:59.600Z,101548.63
2022-09-06T19:41:26.577Z,101545.19
2022-09-06T19:43:54.739Z,101541.78
2022-09-06T19:46:24.045Z,101533.78
2022-09-06T19:48:52.120Z,101535.78
2022-09-06T19:51:19.572Z,101527.13
2022-09-06T19:53:53.018Z,101529.19
2022-09-06T19:56:22.064Z,101532.00
2022-09-06T19:58:56.327Z,101530.38
2022-09-06T20:01:25.126Z,101533.81
2022-09-06T20:03:52.464Z,101526.78
2022-09-06T20:06:19.078Z,101521.56
2022-09-06T20:08:50.548Z,101529.63
2022-09-06T20:11:17.163Z,101519.84
2022-09-06T20:13:43.718Z,101528.69
2022-09-06T20:16:10.743Z,101521.75
2022-09-06T20:18:37.695Z,101522.69
2022-09-06T20:21:05.132Z,101519.25
2022-09-06T20:23:34.054Z,101523.88
2022-09-06T20:26:06.508Z,101529.28
2022-09-06T20:28:33.564Z,101531.16
2022-09-06T20:31:03.210Z,101522.50
2022-09-06T20:33:30.420Z,101519.94
2022-09-06T20:36:04.676Z,101520.09
2022-09-06T20:38:32.404Z,101519.19
2022-09-06T20:41:06.823Z,101521.91
2022-09-06T20:43:36.453Z,101520.19
2022-09-06T20:46:15.131Z,101518.75
2022-09-06T20:48:44.896Z,101511.56
2022-09-06T20:51:14.849Z,101507.28
2022-09-06T20:53:41.741Z,101510.00
2022-09-06T20:56:13.385Z,101501.25
2022-09-06T20:58:40.226Z,101495.94
2022-09-06T21:01:09.372Z,101498.78
2022-09-06T21:03:40.258Z,101501.56
2022-09-06T21:06:08.125Z,101500.72
2022-09-06T21:08:40.560Z,101492.91
2022-09-06T21:11:09.703Z,101486.00
2022-09-06T21:13:37.057Z,101480.75
2022-09-06T21:16:04.718Z,101470.22
2022-09-06T21:18:32.397Z,101478.38
2022-09-06T21:21:01.028Z,101482.72
2022-09-06T21:23:29.039Z,101481.03
2022-09-06T21:26:00.962Z,101478.38
2022-09-06T21:28:30.120Z,101475.78
2022-09-06T21:31:16.722Z,101472.44
2022-09-06T21:33:46.267Z,101467.97
2022-09-06T21:36:15.722Z,101470.63
2022-09-06T21:38:46.187Z,101473.28
2022-09-06T21:41:14.933Z,101466.28
2022-09-06T21:43:42.396Z,101465.41
2022-09-06T21:46:11.348Z,101463.63
2022-09-06T21:48:39.491Z,101457.47
2022-09-06T21:51:10.708Z,101454.03
2022-09-06T21:53:37.313Z,101446.16
2022-09-06T21:56:04.903Z,101453.28
2022-09-06T21:58:31.399Z,101451.47
2022-09-06T22:01:05.015Z,101450.63
2022-09-06T22:03:39.596Z,101455.94
2022-09-06T22:06:18.486Z,101447.16
2022-09-06T22:08:45.752Z,101448.03
2022-09-06T22:11:18.563Z,101443.75
2022-09-06T22:13:45.990Z,101432.19
2022-09-06T22:16:14.111Z,101430.47
2022-09-06T22:18:41.117Z,101440.16
2022-09-06T22:21:18.617Z,101430.47
2022-09-06T22:23:59.271Z,101425.25
2022-09-06T22:26:27.775Z,101421.66
2022-09-06T22:28:56.113Z,101426.03
2022-09-06T22:31:23.770Z,101424.22
2022-09-06T22:33:50.951Z,101421.56
2022-09-06T22:36:17.363Z,101421.56
2022-09-06T22:38:43.931Z,101415.41
2022-09-06T22:41:10.876Z,101414.66
2022-09-06T22:43:37.632Z,101413.63
2022-09-06T22:46:09.499Z,101416.34
2022-09-06T22:48:36.660Z,101408.50
2022-09-06T22:51:04.197Z,101416.53
2022-09-06T22:53:31.118Z,101426.31
2022-09-06T22:55:57.576Z,101424.41
2022-09-06T22:58:25.117Z,101414.75
2022-09-06T23:00:51.697Z,101405.94
2022-09-06T23:03:18.266Z,101419.28
2022-09-06T23:05:44.726Z,101412.25
2022-09-06T23:08:11.164Z,101410.53
2022-09-06T23:10:42.413Z,101401.81
2022-09-06T23:13:10.451Z,101399.06
2022-09-06T23:15:40.681Z,101392.03
2022-09-06T23:18:07.843Z,101390.25
2022-09-06T23:20:36.947Z,101393.94
2022-09-06T23:23:04.827Z,101398.38
2022-09-06T23:25:31.624Z,101399.34
2022-09-06T23:27:59.522Z,101381.72
2022-09-06T23:30:26.147Z,101380.81
2022-09-06T23:32:52.620Z,101379.97
2022-09-06T23:35:19.343Z,101379.06
2022-09-06T23:37:48.705Z,101373.81
2022-09-06T23:40:15.315Z,101371.16
2022-09-06T23:42:41.728Z,101372.94
2022-09-06T23:45:08.664Z,101382.81
2022-09-06T23:47:35.120Z,101383.66
2022-09-06T23:50:01.739Z,101377.41
2022-09-06T23:52:28.117Z,101373.91
2022-09-06T23:54:54.501Z,101372.00
2022-09-06T23:57:21.154Z,101365.84
2022-09-06T23:59:47.559Z,101366.78
